Time;durP1;ratioP1;P1;durP2;ratioP2;P2;SDS_P1;SDS_P2;PMS_P1;PMS_P2;Temp;Humidity;BMP_temperature;BMP_pressure;BME280_temperature;BME280_humidity;BME280_pressure;Samples;Min_cycle;Max_cycle;Signal;HPM_P1;HPM_P2
2022/08/24 00:00:08;;;;;;;22.65;15.40;;;;;;;;;;5051402;28;20766;-62
2022/08/24 00:02:34;;;;;;;25.17;15.38;;;;;;;;;;5051679;28;20017;-63
2022/08/24 00:05:00;;;;;;;22.38;14.75;;;;;;;;;;5051534;28;20108;-61
2022/08/24 00:07:26;;;;;;;22.45;15.30;;;;;;;;;;5050667;28;20128;-60
2022/08/24 00:09:52;;;;;;;21.23;15.90;;;;;;;;;;5051596;28;20478;-62
2022/08/24 00:12:19;;;;;;;19.45;14.68;;;;;;;;;;5051674;28;20033;-63
2022/08/24 00:14:45;;;;;;;20.35;15.65;;;;;;;;;;5051676;28;20032;-61
2022/08/24 00:17:11;;;;;;;25.08;16.10;;;;;;;;;;5050622;28;20029;-61
2022/08/24 00:19:37;;;;;;;21.17;15.75;;;;;;;;;;5051540;28;20032;-62
2022/08/24 00:22:03;;;;;;;17.95;15.02;;;;;;;;;;5051625;28;20063;-62
2022/08/24 00:24:29;;;;;;;19.50;15.35;;;;;;;;;;5051629;28;20032;-62
2022/08/24 00:26:55;;;;;;;20.55;14.52;;;;;;;;;;5051369;28;20416;-62
2022/08/24 00:29:22;;;;;;;20.70;15.18;;;;;;;;;;5050875;28;20393;-62
2022/08/24 00:31:48;;;;;;;21.30;16.08;;;;;;;;;;5051510;28;20435;-62
2022/08/24 00:34:16;;;;;;;20.35;15.60;;;;;;;;;;5051770;28;20108;-62
2022/08/24 00:36:42;;;;;;;19.58;15.52;;;;;;;;;;5051321;28;20027;-62
2022/08/24 00:39:08;;;;;;;19.48;14.52;;;;;;;;;;5050752;28;20025;-60
2022/08/24 00:41:38;;;;;;;19.88;14.48;;;;;;;;;;5054587;28;20071;-62
2022/08/24 00:44:04;;;;;;;19.67;14.30;;;;;;;;;;5055666;28;20648;-61
2022/08/24 00:46:50;;;;;;;19.05;14.82;;;;;;;;;;5055178;28;20035;-63
2022/08/24 00:49:23;;;;;;;21.00;15.18;;;;;;;;;;5054473;28;20064;-62
2022/08/24 00:51:53;;;;;;;21.13;15.30;;;;;;;;;;5055340;28;20036;-62
2022/08/24 00:54:19;;;;;;;19.63;14.93;;;;;;;;;;5055439;28;20024;-62
2022/08/24 00:56:48;;;;;;;22.33;15.13;;;;;;;;;;5054059;28;20048;-61
2022/08/24 00:59:22;;;;;;;19.55;15.48;;;;;;;;;;5054481;28;20021;-62
2022/08/24 01:01:50;;;;;;;19.50;14.23;;;;;;;;;;5055198;28;20025;-62
2022/08/24 01:04:27;;;;;;;21.30;15.80;;;;;;;;;;5055257;28;20029;-63
2022/08/24 01:06:54;;;;;;;18.98;15.77;;;;;;;;;;5055265;28;20021;-62
2022/08/24 01:09:20;;;;;;;24.70;14.85;;;;;;;;;;5054197;28;20029;-62
2022/08/24 01:11:48;;;;;;;22.00;15.98;;;;;;;;;;5055405;28;20106;-62
2022/08/24 01:14:14;;;;;;;27.00;15.90;;;;;;;;;;5055306;28;20128;-61
2022/08/24 01:19:28;;;;;;;21.33;15.82;;;;;;;;;;5054289;28;20036;-62
2022/08/24 01:22:17;;;;;;;18.63;15.65;;;;;;;;;;5055246;28;20021;-62
2022/08/24 01:24:44;;;;;;;18.15;14.38;;;;;;;;;;5044741;28;20033;-63
2022/08/24 01:27:11;;;;;;;18.98;14.27;;;;;;;;;;5054217;28;20104;-59
2022/08/24 01:29:37;;;;;;;21.92;14.73;;;;;;;;;;5054988;28;20021;-61
2022/08/24 01:32:06;;;;;;;18.75;13.98;;;;;;;;;;5055202;28;20064;-62
2022/08/24 01:34:32;;;;;;;21.65;15.05;;;;;;;;;;5054925;28;20424;-63
2022/08/24 01:36:59;;;;;;;18.70;15.18;;;;;;;;;;5054687;28;20024;-62
2022/08/24 01:39:27;;;;;;;18.63;14.32;;;;;;;;;;5054401;28;20033;-62
2022/08/24 01:41:54;;;;;;;20.65;14.25;;;;;;;;;;5054716;28;20070;-62
2022/08/24 01:44:21;;;;;;;18.92;14.55;;;;;;;;;;5053306;28;20029;-63
2022/08/24 01:46:48;;;;;;;19.30;14.35;;;;;;;;;;5054458;28;20017;-63
2022/08/24 01:49:15;;;;;;;17.48;14.30;;;;;;;;;;5053968;28;20025;-63
2022/08/24 01:51:42;;;;;;;21.88;14.93;;;;;;;;;;5053814;28;20025;-62
2022/08/24 01:54:08;;;;;;;20.88;14.93;;;;;;;;;;5054738;28;20053;-63
2022/08/24 01:56:35;;;;;;;18.55;13.95;;;;;;;;;;5054224;28;20040;-62
2022/08/24 01:59:02;;;;;;;20.35;15.10;;;;;;;;;;5052218;28;20028;-63
2022/08/24 02:01:29;;;;;;;19.33;14.75;;;;;;;;;;5054550;28;20652;-63
2022/08/24 02:03:56;;;;;;;19.92;15.00;;;;;;;;;;5054282;28;20017;-62
2022/08/24 02:06:22;;;;;;;21.33;15.25;;;;;;;;;;5054330;28;20485;-63
2022/08/24 02:08:48;;;;;;;19.35;14.68;;;;;;;;;;5053594;28;20040;-64
2022/08/24 02:11:14;;;;;;;19.88;14.80;;;;;;;;;;5054263;28;20167;-62
2022/08/24 02:13:41;;;;;;;20.38;14.93;;;;;;;;;;5054463;28;20456;-64
2022/08/24 02:16:07;;;;;;;18.52;14.63;;;;;;;;;;5054192;28;20094;-63
2022/08/24 02:18:34;;;;;;;19.20;15.15;;;;;;;;;;5052312;28;20033;-63
2022/08/24 02:21:01;;;;;;;19.08;15.00;;;;;;;;;;5054464;28;20023;-63
2022/08/24 02:23:29;;;;;;;19.00;15.15;;;;;;;;;;5054287;28;20025;-63
2022/08/24 02:25:55;;;;;;;20.27;15.30;;;;;;;;;;5053918;28;20032;-61
2022/08/24 02:28:21;;;;;;;19.83;15.77;;;;;;;;;;5050331;28;20032;-60
2022/08/24 02:30:48;;;;;;;18.58;14.55;;;;;;;;;;5053986;28;20025;-62
2022/08/24 02:33:14;;;;;;;21.10;15.50;;;;;;;;;;5053970;28;20088;-62
2022/08/24 02:35:41;;;;;;;20.33;15.20;;;;;;;;;;5053877;28;20071;-63
2022/08/24 02:38:08;;;;;;;20.85;15.55;;;;;;;;;;5052927;28;20021;-63
2022/08/24 02:40:34;;;;;;;19.95;15.18;;;;;;;;;;5054025;28;20159;-63
2022/08/24 02:43:00;;;;;;;19.65;15.68;;;;;;;;;;5053679;28;20078;-63
2022/08/24 02:45:26;;;;;;;21.83;15.13;;;;;;;;;;5053491;28;20021;-63
2022/08/24 02:47:52;;;;;;;20.20;15.75;;;;;;;;;;5052573;28;20021;-62
2022/08/24 02:50:18;;;;;;;19.33;15.80;;;;;;;;;;5053332;28;20047;-62
2022/08/24 02:52:45;;;;;;;19.80;15.57;;;;;;;;;;5053280;28;20025;-62
2022/08/24 02:55:13;;;;;;;19.50;15.93;;;;;;;;;;5053022;28;20021;-63
2022/08/24 02:57:39;;;;;;;20.77;16.13;;;;;;;;;;5052229;28;20052;-63
2022/08/24 03:00:08;;;;;;;21.25;15.70;;;;;;;;;;5051786;28;20118;-62
2022/08/24 03:02:34;;;;;;;22.50;16.83;;;;;;;;;;5052917;28;20385;-63
2022/08/24 03:05:00;;;;;;;20.15;16.10;;;;;;;;;;5052040;28;20025;-64
2022/08/24 03:07:27;;;;;;;20.48;17.10;;;;;;;;;;5051923;28;20068;-63
2022/08/24 03:09:53;;;;;;;21.42;16.88;;;;;;;;;;5052719;28;20396;-63
2022/08/24 03:12:19;;;;;;;21.02;16.42;;;;;;;;;;5052761;28;20021;-62
2022/08/24 03:14:45;;;;;;;20.40;16.33;;;;;;;;;;5052455;28;20033;-61
2022/08/24 03:17:11;;;;;;;20.98;16.45;;;;;;;;;;5051756;28;20029;-61
2022/08/24 03:19:37;;;;;;;20.85;16.35;;;;;;;;;;5051435;28;20029;-62
2022/08/24 03:22:03;;;;;;;21.08;17.25;;;;;;;;;;5052670;28;20036;-63
2022/08/24 03:24:29;;;;;;;20.73;16.85;;;;;;;;;;5052241;28;20024;-62
2022/08/24 03:26:55;;;;;;;22.52;16.65;;;;;;;;;;5051949;28;20498;-63
2022/08/24 03:29:21;;;;;;;22.05;16.90;;;;;;;;;;5051648;28;20112;-62
2022/08/24 03:31:48;;;;;;;21.17;17.20;;;;;;;;;;5052175;28;20025;-60
2022/08/24 03:34:14;;;;;;;22.27;18.75;;;;;;;;;;5051916;28;20032;-64
2022/08/24 03:36:41;;;;;;;21.02;17.20;;;;;;;;;;5052169;28;20029;-62
2022/08/24 03:39:07;;;;;;;23.38;17.45;;;;;;;;;;5050024;28;20032;-63
2022/08/24 03:41:33;;;;;;;24.02;17.83;;;;;;;;;;5052169;28;20021;-62
2022/08/24 03:43:59;;;;;;;26.42;19.27;;;;;;;;;;5052105;28;20028;-62
2022/08/24 03:46:27;;;;;;;21.55;17.67;;;;;;;;;;5051876;28;20021;-63
2022/08/24 03:48:54;;;;;;;21.73;18.50;;;;;;;;;;5051138;28;20024;-63
2022/08/24 03:51:22;;;;;;;22.25;17.90;;;;;;;;;;5051874;28;20108;-63
2022/08/24 03:53:48;;;;;;;22.40;18.25;;;;;;;;;;5056853;28;20025;-63
2022/08/24 03:56:17;;;;;;;23.45;18.13;;;;;;;;;;5057335;28;20045;-63
2022/08/24 03:58:43;;;;;;;21.88;18.30;;;;;;;;;;5053584;28;20552;-62
2022/08/24 04:01:10;;;;;;;24.55;18.55;;;;;;;;;;5052151;28;20024;-62
2022/08/24 04:03:40;;;;;;;22.45;17.65;;;;;;;;;;5051874;28;20086;-62
2022/08/24 04:06:07;;;;;;;21.95;17.95;;;;;;;;;;5051561;28;20492;-63
2022/08/24 04:08:33;;;;;;;23.67;18.48;;;;;;;;;;5050705;28;20176;-63
2022/08/24 04:11:00;;;;;;;22.88;18.90;;;;;;;;;;5051565;28;20032;-63
2022/08/24 04:13:30;;;;;;;22.45;19.27;;;;;;;;;;5050576;28;20094;-63
2022/08/24 04:15:57;;;;;;;23.30;19.67;;;;;;;;;;5051148;28;20032;-62
2022/08/24 04:18:23;;;;;;;24.58;19.52;;;;;;;;;;5049326;28;20517;-61
2022/08/24 04:20:49;;;;;;;24.98;19.50;;;;;;;;;;5051397;28;20017;-63
2022/08/24 04:23:17;;;;;;;20.55;18.33;;;;;;;;;;5051456;28;20056;-62
2022/08/24 04:25:45;;;;;;;25.05;19.15;;;;;;;;;;5051233;28;20489;-63
2022/08/24 04:28:12;;;;;;;21.80;19.42;;;;;;;;;;5050850;28;20021;-63
2022/08/24 04:30:42;;;;;;;24.58;19.20;;;;;;;;;;5051388;28;20033;-63
2022/08/24 04:33:09;;;;;;;22.60;18.92;;;;;;;;;;5051000;28;20033;-67
2022/08/24 04:35:41;;;;;;;28.63;20.98;;;;;;;;;;5063705;28;20528;-66
2022/08/24 04:38:07;;;;;;;27.80;20.90;;;;;;;;;;5070259;28;20025;-63
2022/08/24 04:40:34;;;;;;;23.80;19.63;;;;;;;;;;5071190;28;20078;-67
2022/08/24 04:43:00;;;;;;;24.85;20.95;;;;;;;;;;5057378;28;20132;-65
2022/08/24 04:45:27;;;;;;;27.25;21.27;;;;;;;;;;5033190;28;20094;-64
2022/08/24 04:47:53;;;;;;;25.67;22.95;;;;;;;;;;5050196;28;20032;-65
2022/08/24 04:50:19;;;;;;;27.60;21.75;;;;;;;;;;5054468;28;20017;-67
2022/08/24 04:52:45;;;;;;;35.63;20.08;;;;;;;;;;5071132;28;20032;-69
2022/08/24 04:55:11;;;;;;;42.85;32.58;;;;;;;;;;5070806;28;20387;-67
2022/08/24 04:57:37;;;;;;;29.58;25.48;;;;;;;;;;5070156;28;20111;-68
2022/08/24 05:00:05;;;;;;;32.33;22.77;;;;;;;;;;5070957;28;20099;-68
2022/08/24 05:02:31;;;;;;;28.67;24.77;;;;;;;;;;5071088;28;20017;-68
2022/08/24 05:04:57;;;;;;;30.25;21.30;;;;;;;;;;5070986;28;20020;-67
2022/08/24 05:07:24;;;;;;;31.45;22.30;;;;;;;;;;5066759;28;20128;-66
2022/08/24 05:09:50;;;;;;;35.95;26.13;;;;;;;;;;5050137;28;20481;-68
2022/08/24 05:12:17;;;;;;;38.40;22.52;;;;;;;;;;5050636;28;20431;-68
2022/08/24 05:14:43;;;;;;;41.05;25.00;;;;;;;;;;5050666;28;20096;-68
2022/08/24 05:17:09;;;;;;;49.35;27.88;;;;;;;;;;5050199;28;20021;-67
2022/08/24 05:19:35;;;;;;;43.53;23.40;;;;;;;;;;5032492;28;20558;-70
2022/08/24 05:22:01;;;;;;;46.78;22.50;;;;;;;;;;5051056;28;20028;-68
2022/08/24 05:24:27;;;;;;;46.95;23.50;;;;;;;;;;5032587;28;20025;-66
2022/08/24 05:26:53;;;;;;;37.45;23.55;;;;;;;;;;5050816;28;20021;-68
2022/08/24 05:29:19;;;;;;;34.90;24.20;;;;;;;;;;5053368;28;20021;-67
2022/08/24 05:31:46;;;;;;;37.03;23.60;;;;;;;;;;5054019;28;20057;-66
2022/08/24 05:34:13;;;;;;;36.80;26.48;;;;;;;;;;5036329;28;20025;-63
2022/08/24 05:36:40;;;;;;;32.10;25.77;;;;;;;;;;5073440;28;20104;-63
2022/08/24 05:39:08;;;;;;;40.50;30.92;;;;;;;;;;5072820;28;20469;-63
2022/08/24 05:41:34;;;;;;;30.95;23.42;;;;;;;;;;5055806;28;20531;-63
2022/08/24 05:44:00;;;;;;;34.97;25.08;;;;;;;;;;5073649;28;20030;-63
2022/08/24 05:46:27;;;;;;;34.72;25.25;;;;;;;;;;5055295;28;20029;-64
2022/08/24 05:48:53;;;;;;;34.80;24.20;;;;;;;;;;5072724;28;20028;-63
2022/08/24 05:51:20;;;;;;;32.83;25.20;;;;;;;;;;5073350;28;20530;-64
2022/08/24 05:53:46;;;;;;;35.95;25.08;;;;;;;;;;5073291;28;20396;-64
2022/08/24 05:56:13;;;;;;;36.10;26.02;;;;;;;;;;5074483;28;20078;-65
2022/08/24 05:58:40;;;;;;;33.17;24.42;;;;;;;;;;5072646;28;20549;-62
2022/08/24 06:01:10;;;;;;;32.30;23.85;;;;;;;;;;5073497;28;20066;-64
2022/08/24 06:03:36;;;;;;;33.20;23.40;;;;;;;;;;5073663;28;20023;-63
2022/08/24 06:06:03;;;;;;;28.35;24.35;;;;;;;;;;5073407;28;20028;-63
2022/08/24 06:08:30;;;;;;;31.83;24.80;;;;;;;;;;5072426;28;20024;-63
2022/08/24 06:10:56;;;;;;;36.90;27.00;;;;;;;;;;5055305;28;20679;-63
2022/08/24 06:13:22;;;;;;;34.28;23.88;;;;;;;;;;5073385;28;20587;-63
2022/08/24 06:15:48;;;;;;;28.85;22.48;;;;;;;;;;5073240;28;20071;-64
2022/08/24 06:18:15;;;;;;;29.98;22.23;;;;;;;;;;5072433;28;20020;-63
2022/08/24 06:20:42;;;;;;;28.60;22.17;;;;;;;;;;5073454;28;20047;-63
2022/08/24 06:23:08;;;;;;;27.85;21.20;;;;;;;;;;5074622;28;20012;-63
2022/08/24 06:28:22;;;;;;;31.75;20.98;;;;;;;;;;5083209;28;20035;-64
2022/08/24 06:30:48;;;;;;;29.45;23.27;;;;;;;;;;5086517;28;20401;-65
2022/08/24 06:33:14;;;;;;;29.67;23.25;;;;;;;;;;5085395;28;20039;-63
2022/08/24 06:35:41;;;;;;;28.95;20.85;;;;;;;;;;5074315;28;20024;-64
2022/08/24 06:38:07;;;;;;;26.83;21.80;;;;;;;;;;5071840;28;20052;-63
2022/08/24 06:40:33;;;;;;;28.67;22.40;;;;;;;;;;5072641;28;20444;-62
2022/08/24 06:43:01;;;;;;;33.08;22.10;;;;;;;;;;5072841;28;20025;-64
2022/08/24 06:45:28;;;;;;;33.17;24.55;;;;;;;;;;5072649;28;20177;-64
2022/08/24 06:47:54;;;;;;;28.38;22.60;;;;;;;;;;5071697;28;20150;-64
2022/08/24 06:50:20;;;;;;;26.67;22.13;;;;;;;;;;5072797;28;20020;-63
2022/08/24 06:52:46;;;;;;;27.42;20.77;;;;;;;;;;5072495;28;20031;-62
2022/08/24 06:55:13;;;;;;;28.02;23.25;;;;;;;;;;5072458;28;20075;-62
2022/08/24 06:57:39;;;;;;;33.58;22.95;;;;;;;;;;5053756;28;20020;-63
2022/08/24 07:00:05;;;;;;;28.77;22.85;;;;;;;;;;5072850;28;20020;-63
2022/08/24 07:02:31;;;;;;;30.35;22.27;;;;;;;;;;5072300;28;20029;-63
2022/08/24 07:04:57;;;;;;;26.58;22.65;;;;;;;;;;5072641;28;20444;-63
2022/08/24 07:07:23;;;;;;;29.75;22.40;;;;;;;;;;5071573;28;20032;-63
2022/08/24 07:09:49;;;;;;;33.35;22.52;;;;;;;;;;5072393;28;20024;-64
2022/08/24 07:12:15;;;;;;;37.30;22.13;;;;;;;;;;5072366;28;20028;-62
2022/08/24 07:14:42;;;;;;;36.30;22.20;;;;;;;;;;5072153;28;20071;-64
2022/08/24 07:17:08;;;;;;;37.33;21.38;;;;;;;;;;5072007;28;20023;-62
2022/08/24 07:19:34;;;;;;;34.17;21.40;;;;;;;;;;5053983;28;20058;-61
2022/08/24 07:22:00;;;;;;;45.40;21.23;;;;;;;;;;5072196;28;20020;-61
2022/08/24 07:24:26;;;;;;;34.28;21.00;;;;;;;;;;5072149;28;20051;-63
2022/08/24 07:26:52;;;;;;;27.55;20.67;;;;;;;;;;5054103;28;20028;-61
2022/08/24 07:29:18;;;;;;;27.85;19.95;;;;;;;;;;5071234;28;20020;-62
2022/08/24 07:31:44;;;;;;;33.90;20.48;;;;;;;;;;5071828;28;20020;-61
2022/08/24 07:34:11;;;;;;;25.65;19.45;;;;;;;;;;5071919;28;20107;-61
2022/08/24 07:36:39;;;;;;;30.45;20.10;;;;;;;;;;5071600;28;20484;-62
2022/08/24 07:39:05;;;;;;;25.25;19.38;;;;;;;;;;5072987;28;20078;-61
2022/08/24 07:41:31;;;;;;;25.10;20.17;;;;;;;;;;5075947;28;20051;-61
2022/08/24 07:43:58;;;;;;;28.13;20.85;;;;;;;;;;5075938;28;20032;-61
2022/08/24 07:46:24;;;;;;;36.78;22.00;;;;;;;;;;5075573;28;20089;-62
2022/08/24 07:48:50;;;;;;;28.92;20.58;;;;;;;;;;5054840;28;20024;-61
2022/08/24 07:51:19;;;;;;;27.83;21.55;;;;;;;;;;5070940;28;20024;-59
2022/08/24 07:53:46;;;;;;;29.13;21.42;;;;;;;;;;5071934;28;20472;-59
2022/08/24 07:56:12;;;;;;;30.05;20.80;;;;;;;;;;5071500;28;20055;-59
2022/08/24 07:58:38;;;;;;;27.42;21.30;;;;;;;;;;5070752;28;20109;-57
2022/08/24 08:01:07;;;;;;;28.60;20.33;;;;;;;;;;5071500;28;20024;-61
2022/08/24 08:03:33;;;;;;;;;;;;;;;;;;5072013;28;20031;-60
2022/08/24 08:06:00;;;;;;;24.23;19.77;;;;;;;;;;5071348;28;20357;-59
2022/08/24 08:08:26;;;;;;;26.65;19.45;;;;;;;;;;5070793;28;20036;-54
2022/08/24 08:10:52;;;;;;;25.67;18.75;;;;;;;;;;5071275;28;20090;-61
2022/08/24 08:13:19;;;;;;;24.73;19.60;;;;;;;;;;5071052;28;20028;-59
2022/08/24 08:15:45;;;;;;;24.92;18.92;;;;;;;;;;5071415;28;20459;-58
2022/08/24 08:18:11;;;;;;;25.80;19.23;;;;;;;;;;5052348;28;20029;-58
2022/08/24 08:20:38;;;;;;;29.85;20.48;;;;;;;;;;5053215;28;20028;-60
2022/08/24 08:25:51;;;;;;;26.45;18.98;;;;;;;;;;5071596;28;20124;-60
2022/08/24 08:28:17;;;;;;;23.65;18.80;;;;;;;;;;5071053;28;20023;-60
2022/08/24 08:30:44;;;;;;;25.38;18.27;;;;;;;;;;5070517;28;20036;-57
2022/08/24 08:33:11;;;;;;;24.30;18.75;;;;;;;;;;5071767;28;20052;-62
2022/08/24 08:35:37;;;;;;;22.40;17.17;;;;;;;;;;5071104;28;20017;-60
2022/08/24 08:38:04;;;;;;;33.65;18.95;;;;;;;;;;5070325;28;20109;-58
2022/08/24 08:40:39;;;;;;;26.35;19.17;;;;;;;;;;5053271;28;20443;-60
2022/08/24 08:43:27;;;;;;;30.27;19.60;;;;;;;;;;5071206;28;20111;-55
2022/08/24 08:46:07;;;;;;;27.00;17.73;;;;;;;;;;5070739;28;20032;-58
2022/08/24 08:48:52;;;;;;;24.35;18.48;;;;;;;;;;5070346;28;20024;-61
2022/08/24 08:51:21;;;;;;;24.23;19.48;;;;;;;;;;5071078;28;20090;-60
2022/08/24 08:53:46;;;;;;;22.30;17.00;;;;;;;;;;5070877;28;20484;-58
2022/08/24 08:56:25;;;;;;;22.95;17.05;;;;;;;;;;5071108;28;20040;-62
2022/08/24 08:58:51;;;;;;;;;;;;;;;;;;5070534;28;20021;-60
2022/08/24 09:01:17;;;;;;;23.45;17.27;;;;;;;;;;5070875;28;19905;-61
2022/08/24 09:03:43;;;;;;;21.23;16.50;;;;;;;;;;5074226;28;20020;-61
2022/08/24 09:06:12;;;;;;;23.70;17.58;;;;;;;;;;5074805;28;20019;-60
2022/08/24 09:08:56;;;;;;;22.92;16.88;;;;;;;;;;5073917;28;20547;-61
2022/08/24 09:11:22;;;;;;;21.33;16.80;;;;;;;;;;5074561;28;20025;-61
2022/08/24 09:14:04;;;;;;;25.92;18.02;;;;;;;;;;5074572;28;20384;-63
2022/08/24 09:16:49;;;;;;;21.00;17.83;;;;;;;;;;5074406;28;20450;-62
2022/08/24 09:19:34;;;;;;;21.60;16.67;;;;;;;;;;5073654;28;20046;-57
2022/08/24 09:22:08;;;;;;;18.90;16.02;;;;;;;;;;5074551;28;20055;-59
2022/08/24 09:24:43;;;;;;;19.88;16.02;;;;;;;;;;5074507;28;20020;-60
2022/08/24 09:27:28;;;;;;;23.88;17.35;;;;;;;;;;5074441;28;20020;-59
2022/08/24 09:30:15;;;;;;;19.10;16.17;;;;;;;;;;5075010;28;20451;-62
2022/08/24 09:32:44;;;;;;;20.27;15.48;;;;;;;;;;5075710;28;20551;-62
2022/08/24 09:35:13;;;;;;;20.60;15.65;;;;;;;;;;5075583;28;20039;-55
2022/08/24 09:37:39;;;;;;;17.42;14.88;;;;;;;;;;5074409;28;20028;-58
2022/08/24 09:40:16;;;;;;;19.98;14.90;;;;;;;;;;5056856;28;20020;-62
2022/08/24 09:42:58;;;;;;;20.57;16.07;;;;;;;;;;5073956;28;20370;-60
2022/08/24 09:45:27;;;;;;;22.67;15.57;;;;;;;;;;5073835;28;20028;-63
2022/08/24 09:47:59;;;;;;;21.92;15.20;;;;;;;;;;5055159;28;20037;-61
2022/08/24 09:50:48;;;;;;;22.45;15.13;;;;;;;;;;5074031;28;20050;-63
2022/08/24 09:53:33;;;;;;;20.35;15.65;;;;;;;;;;5073957;28;20024;-62
2022/08/24 09:56:04;;;;;;;19.83;15.50;;;;;;;;;;5073849;28;20032;-62
2022/08/24 09:58:36;;;;;;;19.85;15.57;;;;;;;;;;5071024;28;20036;-62
2022/08/24 10:01:08;;;;;;;20.15;15.30;;;;;;;;;;5061773;28;20032;-55
2022/08/24 10:03:43;;;;;;;22.38;15.85;;;;;;;;;;5062070;28;20025;-62
2022/08/24 10:06:22;;;;;;;20.65;16.00;;;;;;;;;;5062503;28;20017;-63
2022/08/24 10:08:48;;;;;;;18.08;14.75;;;;;;;;;;5070348;28;20028;-63
2022/08/24 10:11:33;;;;;;;20.15;15.13;;;;;;;;;;5073620;28;20029;-64
2022/08/24 10:13:59;;;;;;;18.52;15.20;;;;;;;;;;5072835;28;20033;-65
2022/08/24 10:16:44;;;;;;;17.92;15.00;;;;;;;;;;5073577;28;20029;-63
2022/08/24 10:19:22;;;;;;;19.17;14.70;;;;;;;;;;5073032;28;20021;-60
2022/08/24 10:22:14;;;;;;;17.30;14.70;;;;;;;;;;5055457;28;20028;-60
2022/08/24 10:24:47;;;;;;;19.55;14.50;;;;;;;;;;5052257;28;20029;-62
2022/08/24 10:27:23;;;;;;;18.52;14.90;;;;;;;;;;5052157;28;20033;-64
2022/08/24 10:30:00;;;;;;;19.95;14.70;;;;;;;;;;5052813;28;20035;-61
2022/08/24 10:32:58;;;;;;;20.85;14.65;;;;;;;;;;5034960;28;20079;-61
2022/08/24 10:35:24;;;;;;;18.15;13.90;;;;;;;;;;5019888;28;20037;-56
2022/08/24 10:37:50;;;;;;;19.27;14.48;;;;;;;;;;5072113;28;20036;-62
2022/08/24 10:40:17;;;;;;;17.95;13.95;;;;;;;;;;5072518;28;20487;-59
2022/08/24 10:45:36;;;;;;;17.23;13.80;;;;;;;;;;5072500;28;20412;-62
2022/08/24 10:48:21;;;;;;;16.83;13.90;;;;;;;;;;5071949;28;20040;-62
2022/08/24 10:51:06;;;;;;;16.92;13.98;;;;;;;;;;5072779;28;20036;-62
2022/08/24 10:53:32;;;;;;;18.08;14.50;;;;;;;;;;5072233;28;20032;-62
2022/08/24 10:56:08;;;;;;;17.73;14.55;;;;;;;;;;5072184;28;20043;-62
2022/08/24 10:58:44;;;;;;;17.10;14.45;;;;;;;;;;5053794;28;20492;-57
2022/08/24 11:01:12;;;;;;;18.88;14.00;;;;;;;;;;5072439;28;20051;-61
2022/08/24 11:03:53;;;;;;;18.17;14.68;;;;;;;;;;5072322;28;20020;-64
2022/08/24 11:06:20;;;;;;;17.02;14.50;;;;;;;;;;5054190;28;20016;-62
2022/08/24 11:08:58;;;;;;;18.52;13.82;;;;;;;;;;5071732;28;20483;-61
2022/08/24 11:11:27;;;;;;;18.08;14.02;;;;;;;;;;5072454;28;20073;-63
2022/08/24 11:13:57;;;;;;;20.70;15.55;;;;;;;;;;5072164;28;20085;-62
2022/08/24 11:16:50;;;;;;;20.42;14.15;;;;;;;;;;5072116;28;20052;-61
2022/08/24 11:19:34;;;;;;;17.58;14.80;;;;;;;;;;5067902;28;20446;-63
2022/08/24 11:22:03;;;;;;;18.52;15.40;;;;;;;;;;5071854;28;20050;-52
2022/08/24 11:24:43;;;;;;;18.15;14.63;;;;;;;;;;5071593;28;20031;-59
2022/08/24 11:27:27;;;;;;;17.23;14.88;;;;;;;;;;5071330;28;20175;-57
2022/08/24 11:29:55;;;;;;;18.42;14.95;;;;;;;;;;5053755;28;20086;-56
2022/08/24 11:32:21;;;;;;;;;;;;;;;;;;5071791;28;20078;-58
2022/08/24 11:34:48;;;;;;;21.13;15.13;;;;;;;;;;5068888;28;19935;-59
2022/08/24 11:37:14;;;;;;;17.95;15.57;;;;;;;;;;5069054;28;20130;-59
2022/08/24 11:39:40;;;;;;;17.70;15.20;;;;;;;;;;5071239;28;20527;-56
2022/08/24 11:42:07;;;;;;;21.05;15.98;;;;;;;;;;5071522;28;20405;-57
2022/08/24 11:44:33;;;;;;;18.30;15.73;;;;;;;;;;5071817;28;20032;-55
2022/08/24 11:47:15;;;;;;;16.42;13.18;;;;;;;;;;5071473;28;20043;-61
2022/08/24 11:50:01;;;;;;;17.42;13.70;;;;;;;;;;5071418;28;20025;-59
2022/08/24 11:52:39;;;;;;;17.23;13.57;;;;;;;;;;5071764;28;20027;-58
2022/08/24 11:55:10;;;;;;;16.90;12.63;;;;;;;;;;5071265;28;20051;-55
2022/08/24 11:58:02;;;;;;;17.10;13.50;;;;;;;;;;5072017;28;20070;-58
2022/08/24 12:00:36;;;;;;;18.33;13.25;;;;;;;;;;5048910;28;20028;-61
2022/08/24 12:03:02;;;;;;;19.58;13.13;;;;;;;;;;5071371;28;20071;-59
2022/08/24 12:05:29;;;;;;;17.90;13.90;;;;;;;;;;5071479;28;20029;-57
2022/08/24 12:07:55;;;;;;;16.73;13.38;;;;;;;;;;5070641;28;20047;-59
2022/08/24 12:10:24;;;;;;;20.20;12.90;;;;;;;;;;5071196;28;20473;-59
2022/08/24 12:13:08;;;;;;;17.85;12.98;;;;;;;;;;5071337;28;20127;-59
2022/08/24 12:15:34;;;;;;;20.95;13.30;;;;;;;;;;5070833;28;20094;-59
2022/08/24 12:18:03;;;;;;;17.88;12.70;;;;;;;;;;5070074;28;20040;-60
2022/08/24 12:20:30;;;;;;;17.52;12.35;;;;;;;;;;5052955;28;20557;-58
2022/08/24 12:22:59;;;;;;;18.23;13.10;;;;;;;;;;5070761;28;20104;-59
2022/08/24 12:28:12;;;;;;;19.02;12.55;;;;;;;;;;5071132;28;20043;-59
2022/08/24 12:30:38;;;;;;;17.20;12.70;;;;;;;;;;5064438;28;20036;-59
2022/08/24 12:33:11;;;;;;;18.38;13.02;;;;;;;;;;5052337;28;20044;-59
2022/08/24 12:35:44;;;;;;;20.70;12.30;;;;;;;;;;5070959;28;20027;-61
2022/08/24 12:38:16;;;;;;;17.55;13.93;;;;;;;;;;5074502;28;20167;-59
2022/08/24 12:40:46;;;;;;;20.60;13.45;;;;;;;;;;5075438;28;20376;-60
2022/08/24 12:43:28;;;;;;;17.75;12.60;;;;;;;;;;5075077;28;20392;-59
2022/08/24 12:46:00;;;;;;;20.35;12.65;;;;;;;;;;5075022;28;20393;-61
2022/08/24 12:48:32;;;;;;;18.05;12.98;;;;;;;;;;5074391;28;20028;-58
2022/08/24 12:51:09;;;;;;;18.35;12.65;;;;;;;;;;5078242;28;20017;-57
2022/08/24 12:53:45;;;;;;;17.77;13.32;;;;;;;;;;5075179;28;20024;-61
2022/08/24 12:56:29;;;;;;;17.52;13.05;;;;;;;;;;5074699;28;20028;-58
2022/08/24 12:59:02;;;;;;;16.60;12.90;;;;;;;;;;5074336;28;20032;-61
2022/08/24 13:01:32;;;;;;;17.65;13.73;;;;;;;;;;5074726;28;20013;-61
2022/08/24 13:04:06;;;;;;;18.50;13.68;;;;;;;;;;5074473;28;20489;-59
2022/08/24 13:06:39;;;;;;;16.02;12.57;;;;;;;;;;5074348;28;20032;-61
2022/08/24 13:09:13;;;;;;;16.85;12.95;;;;;;;;;;5073699;28;20077;-59
2022/08/24 13:11:40;;;;;;;18.63;13.20;;;;;;;;;;5074467;28;20036;-60
2022/08/24 13:14:16;;;;;;;16.00;12.80;;;;;;;;;;5074479;28;20036;-61
2022/08/24 13:16:57;;;;;;;15.95;12.32;;;;;;;;;;5074416;28;20032;-61
2022/08/24 13:19:29;;;;;;;16.15;13.32;;;;;;;;;;5073578;28;20033;-61
2022/08/24 13:22:00;;;;;;;18.70;13.07;;;;;;;;;;5074050;28;20021;-59
2022/08/24 13:24:29;;;;;;;16.77;12.85;;;;;;;;;;5073976;28;20020;-61
2022/08/24 13:27:18;;;;;;;17.38;13.55;;;;;;;;;;5073755;28;20035;-59
2022/08/24 13:29:48;;;;;;;17.08;12.90;;;;;;;;;;5073859;28;20488;-61
2022/08/24 13:32:22;;;;;;;18.33;13.30;;;;;;;;;;5073878;28;20111;-61
2022/08/24 13:34:50;;;;;;;16.40;13.13;;;;;;;;;;5073905;28;20052;-59
2022/08/24 13:37:16;;;;;;;17.15;13.25;;;;;;;;;;5072854;28;20016;-60
2022/08/24 13:39:51;;;;;;;19.02;13.02;;;;;;;;;;5073608;28;20043;-55
2022/08/24 13:42:23;;;;;;;16.13;12.48;;;;;;;;;;5073556;28;20424;-61
2022/08/24 13:45:13;;;;;;;16.75;12.85;;;;;;;;;;5073429;28;20434;-57
2022/08/24 13:47:58;;;;;;;21.83;13.50;;;;;;;;;;5059554;28;20032;-59
2022/08/24 13:50:30;;;;;;;15.75;12.10;;;;;;;;;;5073972;28;20025;-60
2022/08/24 13:52:56;;;;;;;17.27;13.20;;;;;;;;;;5073647;28;20020;-60
2022/08/24 13:55:25;;;;;;;16.33;12.75;;;;;;;;;;5073389;28;20025;-62
2022/08/24 13:58:03;;;;;;;17.73;13.23;;;;;;;;;;5072488;28;20028;-61
2022/08/24 14:00:29;;;;;;;17.00;13.52;;;;;;;;;;5073097;28;20111;-60
2022/08/24 14:02:58;;;;;;;17.00;12.93;;;;;;;;;;5072813;28;20052;-59
2022/08/24 14:05:30;;;;;;;17.13;12.90;;;;;;;;;;5073467;28;20424;-59
2022/08/24 14:08:06;;;;;;;17.00;12.75;;;;;;;;;;5072742;28;20029;-61
2022/08/24 14:10:38;;;;;;;17.50;12.07;;;;;;;;;;5050326;28;20029;-60
2022/08/24 14:13:04;;;;;;;16.80;11.85;;;;;;;;;;5055546;28;20028;-59
2022/08/24 14:19:11;;;;;;;16.83;12.82;;;;;;;;;;4965330;28;20058;-58
2022/08/24 14:21:42;;;;;;;17.88;12.68;;;;;;;;;;4972301;28;20022;-58
2022/08/24 14:24:10;;;;;;;17.85;12.60;;;;;;;;;;5048637;28;20036;-57
2022/08/24 14:26:39;;;;;;;17.52;12.70;;;;;;;;;;5072481;28;20431;-59
2022/08/24 14:29:17;;;;;;;15.32;12.30;;;;;;;;;;5072444;28;20028;-57
2022/08/24 14:31:53;;;;;;;17.00;13.20;;;;;;;;;;5073005;28;20024;-60
2022/08/24 14:34:38;;;;;;;17.58;14.10;;;;;;;;;;5073223;28;20078;-59
2022/08/24 14:37:15;;;;;;;18.60;12.73;;;;;;;;;;5072563;28;20032;-59
2022/08/24 14:39:59;;;;;;;17.95;13.15;;;;;;;;;;5072908;28;20045;-61
2022/08/24 14:42:44;;;;;;;16.30;13.10;;;;;;;;;;5072854;28;20574;-61
2022/08/24 14:45:11;;;;;;;18.38;15.73;;;;;;;;;;5072619;28;20115;-62
2022/08/24 14:47:37;;;;;;;;;;;;;;;;;;5071238;28;20025;-62
2022/08/24 14:50:04;;;;;;;18.07;14.13;;;;;;;;;;5072697;28;19910;-61